Time;durP1;ratioP1;P1;durP2;ratioP2;P2;SDS_P1;SDS_P2;PMS_P1;PMS_P2;Temp;Humidity;BMP_temperature;BMP_pressure;BME280_temperature;BME280_humidity;BME280_pressure;Samples;Min_cycle;Max_cycle;Signal;HPM_P1;HPM_P2
2022/04/23 00:00:02;;;;;;;31.90;22.63;;;12.10;67.50;;;;;;4998383;28;20465;-74
2022/04/23 00:02:41;;;;;;;28.53;21.40;;;12.10;67.60;;;;;;4998712;28;20481;-74
2022/04/23 00:05:10;;;;;;;27.00;20.73;;;12.10;67.70;;;;;;4998127;28;20479;-75
2022/04/23 00:07:37;;;;;;;27.87;22.70;;;12.10;67.80;;;;;;4997455;28;20472;-75
2022/04/23 00:10:06;;;;;;;29.63;21.10;;;12.20;68.30;;;;;;4999917;28;20463;-75
2022/04/23 00:12:36;;;;;;;27.00;21.40;;;12.10;67.90;;;;;;4998210;28;20686;-75
2022/04/23 00:15:07;;;;;;;28.90;21.50;;;12.10;68.00;;;;;;4997234;28;20480;-76
2022/04/23 00:17:35;;;;;;;26.90;21.00;;;12.10;68.00;;;;;;4995563;28;20480;-74
2022/04/23 00:20:03;;;;;;;29.00;21.07;;;12.00;68.10;;;;;;4997196;28;20964;-74
2022/04/23 00:22:31;;;;;;;30.70;23.90;;;12.00;68.20;;;;;;4993491;28;20480;-75
2022/04/23 00:24:59;;;;;;;27.30;21.53;;;12.00;68.20;;;;;;5013385;28;20485;-73
2022/04/23 00:27:27;;;;;;;25.00;19.03;;;12.00;68.30;;;;;;5016066;28;20453;-74
2022/04/23 00:29:57;;;;;;;24.83;18.47;;;12.00;68.50;;;;;;5014754;28;20477;-75
2022/04/23 00:32:25;;;;;;;27.60;20.57;;;12.00;68.50;;;;;;5007945;28;20867;-74
2022/04/23 00:34:53;;;;;;;26.10;20.77;;;12.00;68.60;;;;;;5019322;28;20585;-73
2022/04/23 00:37:21;;;;;;;25.47;19.37;;;12.00;68.70;;;;;;5025798;28;20572;-74
2022/04/23 00:39:49;;;;;;;28.40;21.20;;;12.10;68.70;;;;;;5016583;28;20473;-74
2022/04/23 00:42:17;;;;;;;27.50;20.17;;;12.10;68.90;;;;;;5015828;28;20480;-74
2022/04/23 00:44:45;;;;;;;28.77;21.30;;;12.20;68.80;;;;;;5012799;28;21112;-75
2022/04/23 00:47:14;;;;;;;28.20;20.97;;;12.20;68.80;;;;;;5009209;28;20488;-71
2022/04/23 00:49:42;;;;;;;27.40;21.30;;;12.20;68.90;;;;;;5013335;28;20717;-72
2022/04/23 00:52:10;;;;;;;31.53;22.47;;;12.20;68.80;;;;;;5026353;28;20468;-72
2022/04/23 00:54:40;;;;;;;25.63;20.67;;;12.20;68.80;;;;;;5012044;28;20993;-73
2022/04/23 00:57:09;;;;;;;28.90;21.27;;;12.10;68.80;;;;;;5010268;28;20461;-74
2022/04/23 00:59:37;;;;;;;26.30;19.93;;;12.10;68.90;;;;;;5009526;28;20453;-74
2022/04/23 01:02:05;;;;;;;26.63;20.10;;;12.10;69.00;;;;;;5011461;28;20527;-73
2022/04/23 01:04:35;;;;;;;28.77;22.17;;;12.10;69.10;;;;;;5010614;28;20489;-71
2022/04/23 01:07:06;;;;;;;29.63;20.90;;;12.10;69.20;;;;;;5012813;28;20492;-73
2022/04/23 01:09:34;;;;;;;29.17;21.53;;;12.10;69.30;;;;;;5009477;28;20468;-73
2022/04/23 01:12:05;;;;;;;30.00;21.80;;;12.20;69.30;;;;;;5010463;28;20462;-73
2022/04/23 01:14:33;;;;;;;26.07;20.97;;;12.20;69.30;;;;;;5017152;28;21103;-73
2022/04/23 01:17:01;;;;;;;28.57;21.53;;;12.20;69.30;;;;;;5012787;28;20488;-74
2022/04/23 01:19:30;;;;;;;27.53;19.67;;;12.20;69.20;;;;;;5012419;28;20457;-75
2022/04/23 01:21:59;;;;;;;31.80;22.30;;;12.20;69.30;;;;;;5029426;28;20904;-74
2022/04/23 01:24:30;;;;;;;34.70;22.57;;;12.20;69.40;;;;;;5010661;28;20495;-74
2022/04/23 01:26:58;;;;;;;30.63;22.00;;;12.20;69.50;;;;;;5008846;28;20457;-74
2022/04/23 01:29:27;;;;;;;27.27;18.57;;;12.20;69.50;;;;;;5006469;28;20541;-72
2022/04/23 01:31:55;;;;;;;26.07;19.47;;;12.30;69.50;;;;;;5011876;28;20466;-74
2022/04/23 01:34:23;;;;;;;25.10;18.57;;;12.30;69.50;;;;;;5009794;28;20477;-73
2022/04/23 01:36:56;;;;;;;25.93;18.10;;;12.30;69.50;;;;;;5011120;28;20920;-72
2022/04/23 01:39:38;;;;;;;22.20;18.23;;;12.30;69.50;;;;;;5008923;28;20632;-74
2022/04/23 01:42:07;;;;;;;25.60;18.87;;;12.30;69.60;;;;;;5006923;28;20483;-73
2022/04/23 01:44:35;;;;;;;23.40;18.10;;;12.30;69.60;;;;;;5011776;28;20518;-74
2022/04/23 01:47:04;;;;;;;24.60;19.03;;;12.30;69.50;;;;;;5007727;28;20484;-75
2022/04/23 01:49:32;;;;;;;22.87;18.57;;;12.20;69.50;;;;;;5007183;28;20481;-73
2022/04/23 01:52:00;;;;;;;25.10;19.83;;;12.20;69.60;;;;;;5013796;28;20529;-73
2022/04/23 01:54:28;;;;;;;23.97;19.33;;;12.20;69.70;;;;;;5012401;28;20895;-73
2022/04/23 01:56:59;;;;;;;25.90;18.90;;;12.20;69.80;;;;;;5006888;28;20461;-71
2022/04/23 01:59:28;;;;;;;26.40;20.53;;;12.20;69.80;;;;;;5003283;28;20472;-73
2022/04/23 02:01:56;;;;;;;32.70;20.10;;;12.20;69.80;;;;;;5000297;28;20503;-71
2022/04/23 02:04:24;;;;;;;25.20;19.27;;;12.20;69.80;;;;;;5009212;28;20492;-74
2022/04/23 02:06:53;;;;;;;24.90;19.57;;;12.10;69.80;;;;;;5015110;28;20481;-74
2022/04/23 02:09:21;;;;;;;22.87;19.17;;;12.10;69.90;;;;;;5021016;28;20931;-75
2022/04/23 02:11:49;;;;;;;24.90;19.50;;;12.10;70.00;;;;;;5018177;28;20453;-72
2022/04/23 02:14:19;;;;;;;23.67;18.53;;;12.00;70.00;;;;;;5013523;28;20484;-72
2022/04/23 02:16:47;;;;;;;26.30;20.60;;;12.00;70.10;;;;;;5013623;28;20510;-75
2022/04/23 02:19:15;;;;;;;23.37;19.10;;;12.00;70.20;;;;;;5015784;28;20488;-73
2022/04/23 02:21:44;;;;;;;24.30;18.50;;;12.00;70.10;;;;;;5006485;28;20466;-74
2022/04/23 02:24:12;;;;;;;24.93;18.83;;;12.00;70.30;;;;;;5014205;28;20492;-73
2022/04/23 02:26:40;;;;;;;26.50;19.93;;;12.00;70.30;;;;;;5010734;28;21346;-73
2022/04/23 02:29:08;;;;;;;24.63;17.90;;;12.00;70.30;;;;;;5012887;28;20461;-74
2022/04/23 02:31:37;;;;;;;26.40;20.40;;;12.00;70.20;;;;;;5004942;28;20518;-73
2022/04/23 02:34:06;;;;;;;23.13;18.17;;;11.90;70.30;;;;;;5012643;28;20558;-72
2022/04/23 02:36:35;;;;;;;24.30;18.53;;;11.90;70.40;;;;;;5008047;28;20473;-74
2022/04/23 02:39:04;;;;;;;20.80;17.00;;;11.80;70.60;;;;;;5014943;28;20465;-73
2022/04/23 02:41:32;;;;;;;21.60;17.30;;;11.80;70.70;;;;;;5011505;28;20453;-72
2022/04/23 02:44:00;;;;;;;24.70;17.77;;;11.80;70.80;;;;;;5013906;28;20488;-73
2022/04/23 02:46:28;;;;;;;27.60;18.40;;;11.80;70.80;;;;;;5008803;28;20528;-74
2022/04/23 02:48:58;;;;;;;24.53;17.13;;;11.70;71.00;;;;;;5008406;28;20484;-72
2022/04/23 02:51:26;;;;;;;21.50;17.03;;;11.70;71.10;;;;;;5017699;28;20481;-73
2022/04/23 02:53:54;;;;;;;21.93;17.20;;;11.70;71.20;;;;;;5019129;28;21037;-74
2022/04/23 02:56:26;;;;;;;22.93;17.33;;;11.70;71.20;;;;;;5016544;28;20469;-74
2022/04/23 02:58:54;;;;;;;24.60;19.50;;;11.70;71.30;;;;;;5016688;28;20524;-72
2022/04/23 03:01:22;;;;;;;21.33;17.23;;;11.70;71.40;;;;;;5012932;28;20497;-74
2022/04/23 03:03:54;;;;;;;22.77;17.13;;;11.70;71.50;;;;;;5011770;28;20485;-74
2022/04/23 03:06:28;;;;;;;21.93;16.73;;;11.70;71.60;;;;;;5012799;28;20468;-73
2022/04/23 03:09:02;;;;;;;20.13;15.00;;;11.70;71.60;;;;;;5014774;28;20563;-74
2022/04/23 03:11:31;;;;;;;19.10;15.20;;;11.70;71.70;;;;;;5014225;28;20556;-73
2022/04/23 03:13:59;;;;;;;18.63;14.70;;;11.70;71.80;;;;;;5013044;28;20549;-74
2022/04/23 03:16:27;;;;;;;20.70;14.57;;;11.70;71.80;;;;;;5010559;28;20481;-73
2022/04/23 03:18:56;;;;;;;18.67;14.73;;;11.70;72.00;;;;;;5010012;28;20465;-73
2022/04/23 03:21:25;;;;;;;19.20;13.93;;;11.70;72.00;;;;;;5015135;28;20465;-73
2022/04/23 03:23:53;;;;;;;16.57;13.33;;;11.70;72.10;;;;;;5016818;28;20469;-73
2022/04/23 03:26:21;;;;;;;15.57;12.63;;;11.70;72.10;;;;;;5017530;28;20449;-73
2022/04/23 03:28:49;;;;;;;17.40;13.60;;;11.70;72.60;;;;;;5018308;28;20528;-74
2022/04/23 03:31:17;;;;;;;18.03;13.17;;;11.60;72.30;;;;;;5013956;28;20571;-75
2022/04/23 03:33:45;;;;;;;17.77;13.50;;;11.70;72.50;;;;;;5017298;28;20457;-74
2022/04/23 03:36:13;;;;;;;17.17;12.93;;;11.70;72.70;;;;;;5028523;28;21035;-75
2022/04/23 03:38:43;;;;;;;17.70;12.20;;;11.70;72.80;;;;;;5010176;28;20466;-74
2022/04/23 03:41:11;;;;;;;13.93;11.47;;;11.60;72.80;;;;;;5013082;28;20508;-73
2022/04/23 03:43:39;;;;;;;14.37;11.70;;;11.60;72.90;;;;;;5014727;28;21203;-73
2022/04/23 03:46:07;;;;;;;15.33;12.30;;;11.60;72.80;;;;;;5011017;28;20485;-74
2022/04/23 03:48:35;;;;;;;15.50;10.57;;;11.60;73.00;;;;;;5009683;28;20468;-73
2022/04/23 03:51:04;;;;;;;14.30;11.70;;;11.60;72.90;;;;;;5023794;28;20472;-73
2022/04/23 03:53:36;;;;;;;16.10;11.20;;;11.60;73.10;;;;;;5022488;28;20540;-72
2022/04/23 03:56:07;;;;;;;14.20;11.83;;;11.60;73.10;;;;;;5015244;28;21015;-73
2022/04/23 03:58:35;;;;;;;14.17;10.80;;;11.70;73.00;;;;;;5015933;28;21046;-72
2022/04/23 04:01:03;;;;;;;13.43;10.40;;;11.70;73.10;;;;;;5018724;28;20485;-73
2022/04/23 04:03:32;;;;;;;15.33;10.70;;;11.70;73.30;;;;;;5020168;28;20461;-74
2022/04/23 04:06:00;;;;;;;13.37;10.27;;;11.70;73.10;;;;;;5019090;28;20470;-73
2022/04/23 04:08:28;;;;;;;13.20;10.70;;;11.70;73.20;;;;;;5018103;28;20512;-74
2022/04/23 04:10:56;;;;;;;17.73;10.93;;;11.70;73.20;;;;;;5017992;28;21013;-73
2022/04/23 04:13:25;;;;;;;13.27;10.40;;;11.70;73.20;;;;;;5019695;28;20459;-74
2022/04/23 04:15:53;;;;;;;13.73;10.40;;;11.70;73.40;;;;;;5011991;28;20477;-72
2022/04/23 04:18:23;;;;;;;14.10;10.93;;;11.70;73.30;;;;;;5014123;28;20471;-73
2022/04/23 04:20:53;;;;;;;15.87;11.57;;;11.70;73.30;;;;;;5010705;28;20497;-73
2022/04/23 04:23:23;;;;;;;13.20;11.20;;;11.70;73.40;;;;;;5019688;28;21908;-74
2022/04/23 04:25:51;;;;;;;14.57;11.60;;;11.70;73.40;;;;;;5017914;28;20535;-73
2022/04/23 04:28:19;;;;;;;15.80;11.50;;;11.70;73.40;;;;;;5038721;28;20488;-72
2022/04/23 04:33:35;;;;;;;14.77;11.60;;;11.80;73.40;;;;;;5014551;28;20457;-74
2022/04/23 04:36:04;;;;;;;15.77;12.33;;;11.80;73.40;;;;;;5010232;28;20485;-73
2022/04/23 04:38:32;;;;;;;14.33;10.80;;;11.80;73.40;;;;;;5017344;28;20470;-73
2022/04/23 04:41:00;;;;;;;15.20;11.63;;;11.80;73.40;;;;;;5017071;28;20922;-73
2022/04/23 04:43:28;;;;;;;16.50;11.23;;;11.90;73.40;;;;;;5020430;28;20453;-74
2022/04/23 04:45:58;;;;;;;16.30;12.07;;;11.90;73.40;;;;;;5017766;28;20478;-74
2022/04/23 04:48:26;;;;;;;16.07;10.40;;;11.90;73.50;;;;;;5020166;28;20495;-73
2022/04/23 04:50:54;;;;;;;13.70;11.30;;;11.90;73.30;;;;;;5014998;28;20456;-74
2022/04/23 04:53:22;;;;;;;14.63;11.30;;;11.90;73.30;;;;;;5018177;28;20453;-74
2022/04/23 04:55:50;;;;;;;16.30;12.07;;;11.90;73.20;;;;;;5016260;28;20493;-72
2022/04/23 04:58:18;;;;;;;14.00;11.23;;;11.90;73.20;;;;;;5011501;28;20453;-72
2022/04/23 05:00:46;;;;;;;14.83;12.37;;;11.90;73.30;;;;;;5024666;28;20516;-72
2022/04/23 05:03:16;;;;;;;23.47;12.97;;;11.90;73.30;;;;;;5023189;28;20528;-71
2022/04/23 05:05:44;;;;;;;17.73;12.60;;;11.90;73.30;;;;;;5015532;28;20520;-73
2022/04/23 05:08:12;;;;;;;16.37;13.00;;;11.90;73.20;;;;;;5017022;28;20436;-71
2022/04/23 05:10:40;;;;;;;18.70;12.53;;;11.90;73.30;;;;;;5019768;28;20450;-74
2022/04/23 05:13:08;;;;;;;14.93;11.30;;;11.90;73.20;;;;;;5021338;28;20456;-74
2022/04/23 05:15:37;;;;;;;15.40;11.60;;;11.90;73.20;;;;;;5017455;28;20498;-73
2022/04/23 05:18:05;;;;;;;14.93;11.50;;;11.90;73.20;;;;;;5018413;28;20520;-73
2022/04/23 05:20:35;;;;;;;16.43;12.17;;;11.90;73.30;;;;;;5018230;28;20453;-73
2022/04/23 05:23:03;;;;;;;14.10;11.00;;;11.90;73.20;;;;;;5014187;28;20472;-72
2022/04/23 05:25:31;;;;;;;16.20;12.17;;;11.80;73.20;;;;;;5019822;28;20524;-73
2022/04/23 05:27:59;;;;;;;18.37;13.80;;;11.90;73.20;;;;;;5030218;28;20473;-72
2022/04/23 05:30:28;;;;;;;17.70;13.23;;;11.90;73.30;;;;;;5014785;28;20472;-74
2022/04/23 05:32:56;;;;;;;17.70;12.90;;;11.90;73.20;;;;;;5030406;28;20477;-72
2022/04/23 05:35:24;;;;;;;16.93;13.40;;;11.90;73.30;;;;;;5015510;28;20472;-73
2022/04/23 05:37:54;;;;;;;17.27;12.53;;;11.90;73.30;;;;;;5015899;28;20492;-72
2022/04/23 05:40:21;;;;;;;23.50;12.80;;;11.90;73.30;;;;;;5014450;28;20473;-72
2022/04/23 05:42:49;;;;;;;17.57;12.07;;;11.90;73.20;;;;;;5008425;28;20453;-74
2022/04/23 05:45:17;;;;;;;19.03;13.20;;;12.00;73.20;;;;;;5014497;28;20480;-73
2022/04/23 05:47:45;;;;;;;16.23;12.17;;;12.00;73.20;;;;;;5015076;28;20545;-72
2022/04/23 05:50:13;;;;;;;17.03;12.37;;;12.00;73.20;;;;;;5015830;28;20456;-72
2022/04/23 05:52:41;;;;;;;16.30;12.17;;;12.00;73.20;;;;;;5017438;28;20454;-73
2022/04/23 05:55:11;;;;;;;17.53;14.10;;;12.00;73.20;;;;;;5001658;28;20493;-72
2022/04/23 05:57:39;;;;;;;18.57;14.50;;;12.00;73.20;;;;;;5000116;28;20468;-73
2022/04/23 06:00:09;;;;;;;17.43;14.27;;;12.00;73.10;;;;;;5002102;28;20461;-73
2022/04/23 06:02:44;;;;;;;19.47;14.70;;;12.00;73.10;;;;;;5009004;28;20475;-73
2022/04/23 06:05:12;;;;;;;18.97;14.50;;;12.00;73.10;;;;;;5014925;28;20519;-73
2022/04/23 06:07:40;;;;;;;21.57;16.10;;;12.00;73.10;;;;;;5014594;28;20969;-74
2022/04/23 06:10:10;;;;;;;22.90;15.10;;;12.00;73.10;;;;;;5029067;28;20461;-74
2022/04/23 06:12:38;;;;;;;18.63;14.80;;;12.10;73.10;;;;;;5012688;28;20533;-73
2022/04/23 06:15:07;;;;;;;21.53;15.13;;;12.00;73.10;;;;;;5007257;28;20473;-73
2022/04/23 06:17:35;;;;;;;18.80;15.10;;;12.00;73.10;;;;;;4996889;28;20461;-76
2022/04/23 06:20:05;;;;;;;19.97;15.03;;;12.10;73.10;;;;;;4993970;28;20466;-74
2022/04/23 06:22:33;;;;;;;19.63;14.77;;;12.10;73.10;;;;;;4995067;28;21134;-72
2022/04/23 06:25:01;;;;;;;22.20;16.30;;;12.10;73.00;;;;;;4993672;28;20494;-73
2022/04/23 06:27:30;;;;;;;20.37;15.90;;;12.10;73.10;;;;;;5002029;28;20527;-74
2022/04/23 06:29:58;;;;;;;22.10;16.93;;;12.10;73.10;;;;;;4999004;28;20469;-75
2022/04/23 06:32:26;;;;;;;23.17;16.23;;;12.20;73.10;;;;;;4995583;28;20487;-73
2022/04/23 06:34:55;;;;;;;19.30;15.70;;;12.20;73.10;;;;;;5022413;28;20475;-74
2022/04/23 06:37:22;;;;;;;22.60;16.43;;;12.20;73.10;;;;;;5009319;28;20457;-73
2022/04/23 06:39:51;;;;;;;24.97;16.57;;;12.30;73.20;;;;;;5022017;28;20461;-74
2022/04/23 06:42:18;;;;;;;21.07;15.47;;;12.30;73.20;;;;;;5009371;28;20557;-74
2022/04/23 06:44:48;;;;;;;24.07;18.13;;;12.40;73.00;;;;;;5013599;28;20483;-74
2022/04/23 06:47:16;;;;;;;23.30;17.60;;;12.50;72.90;;;;;;5003346;28;20499;-74
2022/04/23 06:49:44;;;;;;;22.03;17.10;;;12.50;72.90;;;;;;4997984;28;20473;-73
2022/04/23 06:52:12;;;;;;;21.93;17.37;;;12.50;72.70;;;;;;5004886;28;20465;-72
2022/04/23 06:54:40;;;;;;;22.67;17.20;;;12.50;72.70;;;;;;5006652;28;20495;-73
2022/04/23 06:57:08;;;;;;;22.47;17.13;;;12.60;72.70;;;;;;5012589;28;20477;-73
2022/04/23 06:59:36;;;;;;;22.57;16.97;;;12.60;72.70;;;;;;5020862;28;20461;-74
2022/04/23 07:02:06;;;;;;;22.17;17.60;;;12.60;72.70;;;;;;5009225;28;20492;-73
2022/04/23 07:04:35;;;;;;;22.13;17.57;;;12.70;72.60;;;;;;5006561;28;20482;-75
2022/04/23 07:07:05;;;;;;;20.80;15.50;;;12.70;72.70;;;;;;4997973;28;20524;-73
2022/04/23 07:09:33;;;;;;;23.07;17.37;;;12.80;72.70;;;;;;5002339;28;20464;-74
2022/04/23 07:12:01;;;;;;;23.43;16.97;;;12.80;72.50;;;;;;5006646;28;20462;-74
2022/04/23 07:14:29;;;;;;;18.53;14.70;;;12.90;72.50;;;;;;5004358;28;20468;-76
2022/04/23 07:16:58;;;;;;;22.10;16.47;;;13.00;72.30;;;;;;5011970;28;20492;-73
2022/04/23 07:19:27;;;;;;;20.37;14.60;;;13.00;72.10;;;;;;5017243;28;20461;-74
2022/04/23 07:21:55;;;;;;;22.00;16.43;;;13.00;72.00;;;;;;5004846;28;20461;-74
2022/04/23 07:24:23;;;;;;;21.77;16.90;;;13.00;72.00;;;;;;5004185;28;20509;-74
2022/04/23 07:26:51;;;;;;;19.30;15.00;;;13.10;71.90;;;;;;5002953;28;20482;-74
2022/04/23 07:29:19;;;;;;;19.90;15.20;;;13.10;71.90;;;;;;4996248;28;20464;-76
2022/04/23 07:31:47;;;;;;;20.83;15.97;;;13.10;72.00;;;;;;4996546;28;20998;-76
2022/04/23 07:39:49;;;;;;;22.83;15.97;;;13.30;71.70;;;;;;4997341;28;20464;-75
2022/04/23 07:42:17;;;;;;;21.37;15.80;;;13.30;71.60;;;;;;5003856;28;21165;-74
2022/04/23 07:44:45;;;;;;;19.90;16.00;;;13.40;71.70;;;;;;5003089;28;20482;-75
2022/04/23 07:47:18;;;;;;;23.27;17.67;;;13.40;71.60;;;;;;4998583;28;20484;-75
2022/04/23 07:49:46;;;;;;;22.53;15.60;;;13.50;71.50;;;;;;4996709;28;20518;-74
2022/04/23 07:52:16;;;;;;;18.50;14.80;;;13.50;71.10;;;;;;5002959;28;20511;-75
2022/04/23 07:54:44;;;;;;;20.03;15.20;;;13.50;71.00;;;;;;4997957;28;20490;-75
2022/04/23 07:57:13;;;;;;;21.77;16.10;;;13.50;70.70;;;;;;4999416;28;20637;-76
2022/04/23 07:59:42;;;;;;;24.47;17.67;;;13.50;70.90;;;;;;4993342;28;20464;-75
2022/04/23 08:02:11;;;;;;;20.53;15.57;;;13.50;71.10;;;;;;4994323;28;20543;-75
2022/04/23 08:04:39;;;;;;;22.60;17.53;;;13.60;70.80;;;;;;4996730;28;21029;-75
2022/04/23 08:07:07;;;;;;;21.40;16.03;;;13.60;70.80;;;;;;4997052;28;20487;-75
2022/04/23 08:09:39;;;;;;;22.00;15.43;;;13.60;70.60;;;;;;4995758;28;20452;-74
2022/04/23 08:12:09;;;;;;;20.20;16.40;;;13.60;70.70;;;;;;4996682;28;20462;-76
2022/04/23 08:14:38;;;;;;;21.57;16.00;;;13.60;70.70;;;;;;5002508;28;20493;-75
2022/04/23 08:17:06;;;;;;;21.63;15.77;;;13.70;70.60;;;;;;4996770;28;20556;-74
2022/04/23 08:19:34;;;;;;;32.33;24.17;;;13.70;70.50;;;;;;4999027;28;20467;-75
2022/04/23 08:22:03;;;;;;;23.23;18.37;;;13.70;70.50;;;;;;4997770;28;20464;-76
2022/04/23 08:24:31;;;;;;;28.03;20.67;;;13.70;70.50;;;;;;4997938;28;20911;-74
2022/04/23 08:27:00;;;;;;;25.47;19.07;;;13.80;70.50;;;;;;4998320;28;20736;-75
2022/04/23 08:32:14;;;;;;;24.17;17.97;;;13.80;70.50;;;;;;5001075;28;20464;-75
2022/04/23 08:34:41;;;;;;;25.43;18.97;;;13.90;70.40;;;;;;4996806;28;20473;-76
2022/04/23 08:37:15;;;;;;;23.30;16.80;;;13.90;70.20;;;;;;4999858;28;20910;-75
2022/04/23 08:39:45;;;;;;;24.70;16.47;;;13.90;70.10;;;;;;4996607;28;20453;-75
2022/04/23 08:42:17;;;;;;;21.30;16.23;;;13.90;70.00;;;;;;4994749;28;20543;-75
2022/04/23 08:44:45;;;;;;;20.80;15.60;;;13.90;69.80;;;;;;5004966;28;20501;-75
2022/04/23 08:47:16;;;;;;;21.23;15.10;;;13.90;69.80;;;;;;5000133;28;21007;-74
2022/04/23 08:49:44;;;;;;;22.67;16.40;;;13.90;69.80;;;;;;4996206;28;21283;-76
2022/04/23 08:52:16;;;;;;;22.67;16.70;;;13.90;69.80;;;;;;4997624;28;20457;-74
2022/04/23 08:54:45;;;;;;;23.00;16.97;;;13.90;69.90;;;;;;4996566;28;21241;-74
2022/04/23 08:57:12;;;;;;;21.70;17.07;;;13.90;69.90;;;;;;4999561;28;20454;-73
2022/04/23 08:59:45;;;;;;;23.30;16.93;;;13.90;69.90;;;;;;4993550;28;20465;-74
2022/04/23 09:02:14;;;;;;;24.70;17.57;;;14.00;69.80;;;;;;4997543;28;21221;-76
2022/04/23 09:04:42;;;;;;;24.77;18.70;;;14.00;69.70;;;;;;4999508;28;20477;-76
2022/04/23 09:07:19;;;;;;;26.63;18.37;;;14.00;69.60;;;;;;4996108;28;20496;-75
2022/04/23 09:09:51;;;;;;;26.40;19.77;;;14.00;69.90;;;;;;4996870;28;20460;-73
2022/04/23 09:12:20;;;;;;;27.90;19.87;;;14.10;69.70;;;;;;4997829;28;20536;-74
2022/04/23 09:14:49;;;;;;;24.83;19.00;;;14.00;69.70;;;;;;4993141;28;20487;-72
2022/04/23 09:25:44;;;;;;;25.20;19.50;;;14.20;69.90;;;;;;4997318;28;20481;-76
2022/04/23 09:28:17;;;;;;;25.37;19.80;;;14.20;69.80;;;;;;4998921;28;20557;-74
2022/04/23 09:30:47;;;;;;;23.70;18.73;;;14.20;69.70;;;;;;4998165;28;20462;-74
2022/04/23 09:33:16;;;;;;;27.43;18.77;;;14.20;69.60;;;;;;5013801;28;20812;-75
2022/04/23 09:35:54;;;;;;;22.20;17.50;;;14.20;69.60;;;;;;4996348;28;20480;-75
2022/04/23 09:38:23;;;;;;;22.70;17.30;;;14.30;69.60;;;;;;4996302;28;20541;-76
2022/04/23 09:40:52;;;;;;;22.10;18.40;;;14.30;69.50;;;;;;5003022;28;20992;-74
2022/04/23 09:43:26;;;;;;;27.53;19.87;;;14.30;69.50;;;;;;5019771;28;21291;-74
2022/04/23 09:46:04;;;;;;;26.67;17.70;;;14.30;69.40;;;;;;4997519;28;20484;-75
2022/04/23 09:48:38;;;;;;;23.47;18.50;;;14.40;69.30;;;;;;5000507;28;20488;-76
2022/04/23 09:51:19;;;;;;;23.13;18.33;;;14.40;69.30;;;;;;4997059;28;20483;-74
2022/04/23 09:53:48;;;;;;;24.43;19.40;;;14.40;69.20;;;;;;5005342;28;20470;-73
2022/04/23 09:56:19;;;;;;;25.30;19.17;;;14.40;69.20;;;;;;4998577;28;20480;-75
2022/04/23 09:58:47;;;;;;;32.97;22.40;;;14.40;69.10;;;;;;4998656;28;20450;-73
2022/04/23 10:01:18;;;;;;;34.90;21.73;;;14.40;69.10;;;;;;4999389;28;20477;-76
2022/04/23 10:03:51;;;;;;;28.93;22.10;;;14.40;69.10;;;;;;4999864;28;20488;-76
2022/04/23 10:06:20;;;;;;;29.20;20.47;;;14.40;69.10;;;;;;4997910;28;20518;-75
2022/04/23 10:08:51;;;;;;;29.30;21.50;;;14.40;69.20;;;;;;4997712;28;21751;-74
2022/04/23 10:11:23;;;;;;;33.10;22.77;;;14.40;69.20;;;;;;4996559;28;20461;-75
2022/04/23 10:13:56;;;;;;;32.33;21.67;;;14.40;69.20;;;;;;4998258;28;20517;-75
2022/04/23 10:16:28;;;;;;;29.73;21.73;;;14.40;69.20;;;;;;5001211;28;20487;-75
2022/04/23 10:18:57;;;;;;;30.40;22.87;;;14.40;69.20;;;;;;4995868;28;20475;-73
2022/04/23 10:21:32;;;;;;;31.37;23.10;;;14.40;69.10;;;;;;4993731;28;20817;-76
2022/04/23 10:24:07;;;;;;;33.57;24.27;;;14.40;69.20;;;;;;4997164;28;20985;-74
2022/04/23 10:26:46;;;;;;;44.63;25.83;;;14.40;69.10;;;;;;4996518;28;20459;-75
2022/04/23 10:29:16;;;;;;;36.87;26.47;;;14.30;69.20;;;;;;4998078;28;20500;-73
2022/04/23 10:32:05;;;;;;;35.10;23.60;;;14.30;69.10;;;;;;4994389;28;21005;-76
2022/04/23 10:34:34;;;;;;;35.50;24.60;;;14.30;69.20;;;;;;4994469;28;20606;-76
2022/04/23 10:37:18;;;;;;;39.67;26.90;;;14.30;69.20;;;;;;4993970;28;20458;-77
2022/04/23 10:40:06;;;;;;;38.17;25.67;;;14.30;69.20;;;;;;5000899;28;20535;-75
2022/04/23 10:42:34;;;;;;;33.70;24.27;;;14.30;69.30;;;;;;5012498;28;20465;-74
2022/04/23 10:45:05;;;;;;;31.83;22.10;;;14.30;69.30;;;;;;4997993;28;20493;-77
2022/04/23 10:47:36;;;;;;;34.30;24.57;;;14.30;69.30;;;;;;5002422;28;21183;-76
2022/04/23 10:50:33;;;;;;;35.50;25.20;;;14.30;69.30;;;;;;4992206;28;20496;-74
2022/04/23 10:53:03;;;;;;;29.87;20.70;;;14.30;69.40;;;;;;4995250;28;21868;-75
2022/04/23 10:55:32;;;;;;;32.17;23.47;;;14.30;69.20;;;;;;4996765;28;20801;-74
2022/04/23 10:58:21;;;;;;;29.30;22.13;;;14.30;69.20;;;;;;4996984;28;20962;-74
2022/04/23 11:00:49;;;;;;;32.60;22.23;;;14.40;69.10;;;;;;4995720;28;21091;-78
2022/04/23 11:03:28;;;;;;;30.50;20.67;;;14.40;69.00;;;;;;5004480;28;20499;-74
2022/04/23 11:14:45;;;;;;;47.37;29.07;;;14.40;69.00;;;;;;4999683;28;20525;-74
2022/04/23 11:17:13;;;;;;;43.20;29.17;;;14.30;69.00;;;;;;4996703;28;20497;-71
2022/04/23 11:19:42;;;;;;;35.50;25.63;;;14.30;69.00;;;;;;4992210;28;20466;-72
2022/04/23 11:22:10;;;;;;;34.70;25.17;;;14.30;69.00;;;;;;4994165;28;21114;-73
2022/04/23 11:24:39;;;;;;;38.13;28.27;;;14.30;69.00;;;;;;5000531;28;21057;-74
2022/04/23 11:27:08;;;;;;;39.63;29.37;;;14.40;69.10;;;;;;4997531;28;20574;-74
2022/04/23 11:29:39;;;;;;;39.60;28.43;;;14.40;69.00;;;;;;4997038;28;20468;-73
2022/04/23 11:32:08;;;;;;;36.67;26.87;;;14.40;69.00;;;;;;4995965;28;20529;-74
2022/04/23 11:34:39;;;;;;;35.83;26.47;;;14.40;69.00;;;;;;4997859;28;20499;-75
2022/04/23 11:37:11;;;;;;;35.03;24.93;;;14.40;69.00;;;;;;4998875;28;20455;-75
2022/04/23 11:39:39;;;;;;;35.23;25.50;;;14.40;68.90;;;;;;4997793;28;20472;-76
2022/04/23 11:42:08;;;;;;;35.17;25.90;;;14.40;68.90;;;;;;5000687;28;20505;-75
2022/04/23 11:44:50;;;;;;;33.40;24.13;;;14.50;68.70;;;;;;4998756;28;20558;-75
2022/04/23 11:47:31;;;;;;;38.90;27.60;;;14.50;68.50;;;;;;4997992;28;20485;-75
2022/04/23 11:50:11;;;;;;;36.67;24.53;;;14.50;68.50;;;;;;4996883;28;20485;-76
2022/04/23 11:52:42;;;;;;;31.97;22.97;;;14.50;68.50;;;;;;4994812;28;20527;-77
2022/04/23 11:55:21;;;;;;;33.07;24.67;;;14.50;68.50;;;;;;4993131;28;20885;-74
2022/04/23 11:58:00;;;;;;;33.40;24.07;;;14.60;68.30;;;;;;4996610;28;20458;-76
2022/04/23 12:00:28;;;;;;;33.43;25.60;;;14.60;68.50;;;;;;4995502;28;20485;-75
2022/04/23 12:02:56;;;;;;;32.00;24.23;;;14.70;68.30;;;;;;4997067;28;20491;-73
2022/04/23 12:05:28;;;;;;;33.10;23.87;;;14.70;68.30;;;;;;4997276;28;20485;-73
2022/04/23 12:07:57;;;;;;;29.43;22.07;;;14.80;68.10;;;;;;4999460;28;20904;-75
2022/04/23 12:10:27;;;;;;;29.27;22.70;;;14.80;67.90;;;;;;5002026;28;21301;-74
2022/04/23 12:12:57;;;;;;;32.00;20.60;;;14.80;67.90;;;;;;5000561;28;21196;-78
2022/04/23 12:15:25;;;;;;;28.10;20.47;;;14.90;67.70;;;;;;4998201;28;20504;-73
2022/04/23 12:17:59;;;;;;;29.00;20.27;;;14.90;67.60;;;;;;5003190;28;20464;-74
2022/04/23 12:20:28;;;;;;;30.00;20.70;;;14.90;67.50;;;;;;4994055;28;20918;-74
2022/04/23 12:22:59;;;;;;;25.40;18.73;;;14.90;67.40;;;;;;4997799;28;20914;-74
2022/04/23 12:25:27;;;;;;;25.90;19.23;;;14.90;67.30;;;;;;4999957;28;20563;-76
2022/04/23 12:28:00;;;;;;;25.90;19.47;;;14.90;67.20;;;;;;4997054;28;20468;-74
2022/04/23 12:41:59;;;;;;;31.10;21.10;;;15.10;67.10;;;;;;5002383;28;20453;-77
2022/04/23 12:44:34;;;;;;;27.10;19.23;;;15.10;66.90;;;;;;4998118;28;20497;-77
2022/04/23 12:47:04;;;;;;;26.67;19.70;;;15.10;66.70;;;;;;5014448;28;21262;-77
2022/04/23 12:49:46;;;;;;;26.87;18.90;;;15.10;66.60;;;;;;4999360;28;20488;-76
2022/04/23 12:52:17;;;;;;;28.17;20.37;;;15.10;66.50;;;;;;5002871;28;20471;-74
2022/04/23 12:55:15;;;;;;;37.20;25.60;;;15.20;66.30;;;;;;5000045;28;20500;-75
2022/04/23 12:57:45;;;;;;;34.07;19.67;;;15.20;66.10;;;;;;4999848;28;20995;-76
2022/04/23 13:00:16;;;;;;;27.80;20.20;;;15.20;66.00;;;;;;5003029;28;20485;-76
2022/04/23 13:02:47;;;;;;;27.97;19.70;;;15.20;66.00;;;;;;5005283;28;20464;-76
2022/04/23 13:05:16;;;;;;;27.37;19.27;;;15.20;65.80;;;;;;5004213;28;21022;-76
2022/04/23 13:10:33;;;;;;;23.30;15.50;;;15.20;65.50;;;;;;5000163;28;20817;-73
2022/04/23 13:13:01;;;;;;;27.57;18.70;;;15.20;65.60;;;;;;5005050;28;20485;-74
2022/04/23 13:15:29;;;;;;;29.70;18.37;;;15.20;65.60;;;;;;5000229;28;20457;-74
2022/04/23 13:17:57;;;;;;;21.97;16.10;;;15.20;65.50;;;;;;4998712;28;20623;-75
2022/04/23 13:20:25;;;;;;;29.07;20.20;;;15.30;65.60;;;;;;5002721;28;20453;-74
2022/04/23 13:22:54;;;;;;;24.73;18.10;;;15.30;65.50;;;;;;4999742;28;20519;-74